Monday, April 24, 2017, 10:46 PM EDT
Back to Local

KCXY, Harrisburg Capital City

Location: New Cumberland, PA, United States Lat: 40.217
Local Time: 10:46 PM EDT ( 2:46 GMT) Lon: -76.85
Time Zone: US/Eastern Elev: 347 ft

Show me the last for .
Show Decoded

2017-04-24 21:56 METAR KCXY 250156Z AUTO 08006KT 10SM OVC050 12/06 A3006 RMK AO2 SLP182 T01220061
                 =
2017-04-24 20:56 METAR KCXY 250056Z 09005KT 10SM OVC055 12/07 A3007 RMK AO2 SLP184 T01220067 =
2017-04-24 19:56 METAR KCXY 242356Z 07005KT 10SM OVC055 13/07 A3007 RMK AO2 RAE46 SLP184 P0000
                 60005 T01280067 10161 20128 57002 =
2017-04-24 18:56 METAR KCXY 242256Z 06007KT 10SM -RA OVC060 13/07 A3007 RMK AO2 RAB03 SLP185
                 P0001 T01330067 =
2017-04-24 17:56 METAR KCXY 242156Z 05008KT 10SM OVC060 15/06 A3007 RMK AO2 RAE20B39E48 SLP184
                 P0000 T01500061 =
2017-04-24 16:56 METAR KCXY 242056Z 08008KT 9SM -RA OVC065 14/09 A3007 RMK AO2 RAE14B49 SLP185
                 P0001 60004 T01440094 58006 =
2017-04-24 15:56 METAR KCXY 241956Z 07009KT 6SM RA OVC070 14/08 A3009 RMK AO2 RAB24 SLP190 P0003
                 T01390078 =
2017-04-24 14:56 METAR KCXY 241856Z 05007KT 10SM OVC070 16/08 A3009 RMK AO2 RAE18 SLP190 P0000
                 T01610078 =
2017-04-24 13:56 METAR KCXY 241756Z 11007KT 10SM -RA SCT080 OVC095 16/07 A3009 RMK AO2 RAB03
                 SLP192 P0000 60000 T01560072 10161 20106 56016 =
2017-04-24 12:56 METAR KCXY 241656Z 10006KT 10SM FEW075 OVC090 15/08 A3011 RMK AO2 SLP197
                 T01500083 =
2017-04-24 11:56 METAR KCXY 241556Z VRB03KT 10SM SCT080 OVC090 14/08 A3012 RMK AO2 SLP202
                 T01440083 =
2017-04-24 10:56 METAR KCXY 241456Z 13004KT 10SM OVC095 13/09 A3014 RMK AO2 RAE51 SLP208 P0000
                 60000 T01280089 51004 =
2017-04-24 09:56 METAR KCXY 241356Z 12004KT 10SM -RA OVC100 12/08 A3013 RMK AO2 SLP206 P0000
                 T01170083 =
2017-04-24 08:56 METAR KCXY 241256Z 10005KT 10SM -RA OVC100 11/08 A3013 RMK AO2 RAB23 SLP205
                 P0000 T01110078 =
2017-04-24 07:56 METAR KCXY 241156Z 09004KT 10SM OVC100 11/07 A3013 RMK AO2 SLP203 T01060072
                 10106 20067 51013 =
2017-04-24 06:56 METAR KCXY 241056Z 00000KT 10SM OVC120 09/07 A3012 RMK AO2 SLP201 T00940067 =
2017-04-24 05:56 METAR KCXY 240956Z AUTO 00000KT 10SM BKN110 09/06 A3010 RMK AO2 SLP194 T00940061
                 =
2017-04-24 04:56 METAR KCXY 240856Z AUTO 00000KT 10SM FEW120 08/06 A3009 RMK AO2 SLP190 T00830061
                 55000 =
2017-04-24 03:56 METAR KCXY 240756Z AUTO 00000KT 10SM CLR 08/05 A3008 RMK AO2 SLP187 T00780050 =
2017-04-24 02:56 METAR KCXY 240656Z AUTO 26003KT 10SM CLR 07/04 A3008 RMK AO2 SLP188 T00720044 =
2017-04-24 01:56 METAR KCXY 240556Z AUTO 23003KT 10SM CLR 08/05 A3009 RMK AO2 SLP190 T00830050
                 10167 20078 58003 =
2017-04-24 00:56 METAR KCXY 240456Z AUTO 21003KT 10SM CLR 09/06 A3009 RMK AO2 SLP192 T00890056
                 401890028 =
2017-04-23 23:56 METAR KCXY 240356Z AUTO 00000KT 10SM CLR 12/06 A3010 RMK AO2 SLP196 T01170061 =
2017-04-23 22:56 METAR KCXY 240256Z AUTO 00000KT 10SM CLR 14/06 A3010 RMK AO2 SLP193 T01390056
                 51010 =

Support USWX by starting your Amazon purchase here.